sensor_id;sensor_type;location;lat;lon;timestamp;P1;durP1;ratioP1;P2;durP2;ratioP2
6725;SDS011;3400;48.506;11.692;2023-04-28T00:00:54;7.83;;;6.13;;
6725;SDS011;3400;48.506;11.692;2023-04-28T00:03:23;8.10;;;6.70;;
6725;SDS011;3400;48.506;11.692;2023-04-28T00:05:51;9.70;;;6.27;;
6725;SDS011;3400;48.506;11.692;2023-04-28T00:08:19;7.37;;;6.17;;
6725;SDS011;3400;48.506;11.692;2023-04-28T00:10:48;11.43;;;6.90;;
6725;SDS011;3400;48.506;11.692;2023-04-28T00:13:16;9.17;;;6.43;;
6725;SDS011;3400;48.506;11.692;2023-04-28T00:15:43;12.73;;;6.43;;
6725;SDS011;3400;48.506;11.692;2023-04-28T00:18:11;9.60;;;6.40;;
6725;SDS011;3400;48.506;11.692;2023-04-28T00:20:40;9.07;;;6.53;;
6725;SDS011;3400;48.506;11.692;2023-04-28T00:23:08;8.43;;;6.87;;
6725;SDS011;3400;48.506;11.692;2023-04-28T00:25:36;8.03;;;6.50;;
6725;SDS011;3400;48.506;11.692;2023-04-28T00:28:04;10.67;;;6.20;;
6725;SDS011;3400;48.506;11.692;2023-04-28T00:30:31;9.97;;;6.03;;
6725;SDS011;3400;48.506;11.692;2023-04-28T00:32:59;11.40;;;6.27;;
6725;SDS011;3400;48.506;11.692;2023-04-28T00:35:27;11.50;;;6.37;;
6725;SDS011;3400;48.506;11.692;2023-04-28T00:37:56;11.17;;;6.97;;
6725;SDS011;3400;48.506;11.692;2023-04-28T00:40:31;8.20;;;6.30;;
6725;SDS011;3400;48.506;11.692;2023-04-28T00:42:59;7.77;;;6.10;;
6725;SDS011;3400;48.506;11.692;2023-04-28T00:45:27;8.33;;;5.87;;
6725;SDS011;3400;48.506;11.692;2023-04-28T00:47:55;10.30;;;6.63;;
6725;SDS011;3400;48.506;11.692;2023-04-28T00:50:23;7.53;;;6.07;;
6725;SDS011;3400;48.506;11.692;2023-04-28T00:52:52;11.53;;;6.20;;
6725;SDS011;3400;48.506;11.692;2023-04-28T00:55:21;7.13;;;6.00;;
6725;SDS011;3400;48.506;11.692;2023-04-28T00:57:50;6.30;;;5.70;;
6725;SDS011;3400;48.506;11.692;2023-04-28T01:00:18;8.37;;;6.27;;
6725;SDS011;3400;48.506;11.692;2023-04-28T01:02:46;9.90;;;6.70;;
6725;SDS011;3400;48.506;11.692;2023-04-28T01:05:14;8.17;;;6.00;;
6725;SDS011;3400;48.506;11.692;2023-04-28T01:07:43;7.73;;;6.63;;
6725;SDS011;3400;48.506;11.692;2023-04-28T01:10:11;8.53;;;5.70;;
6725;SDS011;3400;48.506;11.692;2023-04-28T01:12:40;13.33;;;5.87;;
6725;SDS011;3400;48.506;11.692;2023-04-28T01:15:09;8.93;;;6.20;;
6725;SDS011;3400;48.506;11.692;2023-04-28T01:17:39;6.73;;;5.70;;
6725;SDS011;3400;48.506;11.692;2023-04-28T01:20:07;8.37;;;5.93;;
6725;SDS011;3400;48.506;11.692;2023-04-28T01:22:35;9.90;;;6.60;;
6725;SDS011;3400;48.506;11.692;2023-04-28T01:25:05;8.67;;;6.63;;
6725;SDS011;3400;48.506;11.692;2023-04-28T01:27:33;10.07;;;6.83;;
6725;SDS011;3400;48.506;11.692;2023-04-28T01:30:01;6.70;;;5.87;;
6725;SDS011;3400;48.506;11.692;2023-04-28T01:32:30;8.93;;;7.10;;
6725;SDS011;3400;48.506;11.692;2023-04-28T01:34:58;8.87;;;5.87;;
6725;SDS011;3400;48.506;11.692;2023-04-28T01:37:25;8.87;;;6.63;;
6725;SDS011;3400;48.506;11.692;2023-04-28T01:39:53;7.67;;;6.33;;
6725;SDS011;3400;48.506;11.692;2023-04-28T01:42:22;9.57;;;5.60;;
6725;SDS011;3400;48.506;11.692;2023-04-28T01:44:50;7.57;;;5.90;;
6725;SDS011;3400;48.506;11.692;2023-04-28T01:47:18;7.80;;;6.50;;
6725;SDS011;3400;48.506;11.692;2023-04-28T01:49:46;9.53;;;6.03;;
6725;SDS011;3400;48.506;11.692;2023-04-28T01:52:15;8.97;;;6.67;;
6725;SDS011;3400;48.506;11.692;2023-04-28T01:54:44;9.40;;;6.97;;
6725;SDS011;3400;48.506;11.692;2023-04-28T01:57:12;7.37;;;6.57;;
6725;SDS011;3400;48.506;11.692;2023-04-28T01:59:42;7.00;;;6.30;;
6725;SDS011;3400;48.506;11.692;2023-04-28T02:02:09;7.73;;;6.70;;
6725;SDS011;3400;48.506;11.692;2023-04-28T02:04:38;9.90;;;6.80;;
6725;SDS011;3400;48.506;11.692;2023-04-28T02:07:06;8.60;;;7.60;;
6725;SDS011;3400;48.506;11.692;2023-04-28T02:09:34;9.63;;;7.57;;
6725;SDS011;3400;48.506;11.692;2023-04-28T02:12:02;11.73;;;7.00;;
6725;SDS011;3400;48.506;11.692;2023-04-28T02:14:29;10.50;;;6.80;;
6725;SDS011;3400;48.506;11.692;2023-04-28T02:16:59;8.03;;;7.23;;
6725;SDS011;3400;48.506;11.692;2023-04-28T02:19:27;10.63;;;7.57;;
6725;SDS011;3400;48.506;11.692;2023-04-28T02:21:55;11.03;;;7.83;;
6725;SDS011;3400;48.506;11.692;2023-04-28T02:24:23;8.53;;;7.10;;
6725;SDS011;3400;48.506;11.692;2023-04-28T02:26:51;8.77;;;6.90;;
6725;SDS011;3400;48.506;11.692;2023-04-28T02:29:18;11.47;;;6.53;;
6725;SDS011;3400;48.506;11.692;2023-04-28T02:31:46;7.37;;;6.67;;
6725;SDS011;3400;48.506;11.692;2023-04-28T02:34:16;10.73;;;7.33;;
6725;SDS011;3400;48.506;11.692;2023-04-28T02:36:44;8.10;;;6.87;;
6725;SDS011;3400;48.506;11.692;2023-04-28T02:39:12;9.07;;;7.07;;
6725;SDS011;3400;48.506;11.692;2023-04-28T02:41:40;9.07;;;7.13;;
6725;SDS011;3400;48.506;11.692;2023-04-28T02:44:08;8.10;;;6.60;;
6725;SDS011;3400;48.506;11.692;2023-04-28T02:46:36;10.23;;;7.37;;
6725;SDS011;3400;48.506;11.692;2023-04-28T02:49:04;7.80;;;7.00;;
6725;SDS011;3400;48.506;11.692;2023-04-28T02:51:33;10.63;;;7.50;;
6725;SDS011;3400;48.506;11.692;2023-04-28T02:54:01;10.20;;;7.00;;
6725;SDS011;3400;48.506;11.692;2023-04-28T02:56:29;10.07;;;7.53;;
6725;SDS011;3400;48.506;11.692;2023-04-28T02:58:58;11.73;;;7.03;;
6725;SDS011;3400;48.506;11.692;2023-04-28T03:01:26;7.20;;;6.37;;
6725;SDS011;3400;48.506;11.692;2023-04-28T03:03:54;11.23;;;7.10;;
6725;SDS011;3400;48.506;11.692;2023-04-28T03:06:22;7.50;;;6.20;;
6725;SDS011;3400;48.506;11.692;2023-04-28T03:08:51;6.03;;;5.43;;
6725;SDS011;3400;48.506;11.692;2023-04-28T03:11:19;8.93;;;7.23;;
6725;SDS011;3400;48.506;11.692;2023-04-28T03:13:47;9.80;;;7.20;;
6725;SDS011;3400;48.506;11.692;2023-04-28T03:16:14;8.70;;;6.73;;
6725;SDS011;3400;48.506;11.692;2023-04-28T03:18:42;8.70;;;6.90;;
6725;SDS011;3400;48.506;11.692;2023-04-28T03:21:10;9.90;;;8.03;;
6725;SDS011;3400;48.506;11.692;2023-04-28T03:23:38;7.63;;;6.83;;
6725;SDS011;3400;48.506;11.692;2023-04-28T03:26:07;8.77;;;7.17;;
6725;SDS011;3400;48.506;11.692;2023-04-28T03:28:35;9.77;;;7.67;;
6725;SDS011;3400;48.506;11.692;2023-04-28T03:31:03;8.93;;;7.23;;
6725;SDS011;3400;48.506;11.692;2023-04-28T03:33:31;9.03;;;7.80;;
6725;SDS011;3400;48.506;11.692;2023-04-28T03:35:59;9.93;;;6.90;;
6725;SDS011;3400;48.506;11.692;2023-04-28T03:38:27;9.30;;;7.27;;
6725;SDS011;3400;48.506;11.692;2023-04-28T03:40:55;9.57;;;7.23;;
6725;SDS011;3400;48.506;11.692;2023-04-28T03:43:33;7.90;;;6.83;;
6725;SDS011;3400;48.506;11.692;2023-04-28T03:46:28;7.30;;;5.97;;
6725;SDS011;3400;48.506;11.692;2023-04-28T03:48:56;10.00;;;6.67;;
6725;SDS011;3400;48.506;11.692;2023-04-28T03:51:24;10.60;;;7.23;;
6725;SDS011;3400;48.506;11.692;2023-04-28T03:53:52;10.17;;;7.00;;
6725;SDS011;3400;48.506;11.692;2023-04-28T03:56:20;8.07;;;6.07;;
6725;SDS011;3400;48.506;11.692;2023-04-28T03:58:50;7.13;;;6.13;;
6725;SDS011;3400;48.506;11.692;2023-04-28T04:01:17;9.30;;;7.30;;
6725;SDS011;3400;48.506;11.692;2023-04-28T04:03:47;8.93;;;7.13;;
6725;SDS011;3400;48.506;11.692;2023-04-28T04:06:17;9.00;;;7.63;;
6725;SDS011;3400;48.506;11.692;2023-04-28T04:08:45;10.60;;;7.57;;
6725;SDS011;3400;48.506;11.692;2023-04-28T04:11:14;9.13;;;6.93;;
6725;SDS011;3400;48.506;11.692;2023-04-28T04:13:42;9.93;;;7.70;;
6725;SDS011;3400;48.506;11.692;2023-04-28T04:16:15;9.53;;;7.27;;
6725;SDS011;3400;48.506;11.692;2023-04-28T04:18:43;8.17;;;6.97;;
6725;SDS011;3400;48.506;11.692;2023-04-28T04:21:17;8.63;;;7.73;;
6725;SDS011;3400;48.506;11.692;2023-04-28T04:23:47;11.70;;;7.67;;
6725;SDS011;3400;48.506;11.692;2023-04-28T04:26:15;9.83;;;7.60;;
6725;SDS011;3400;48.506;11.692;2023-04-28T04:28:43;10.90;;;7.80;;
6725;SDS011;3400;48.506;11.692;2023-04-28T04:31:11;10.73;;;8.27;;
6725;SDS011;3400;48.506;11.692;2023-04-28T04:33:41;11.37;;;8.60;;
6725;SDS011;3400;48.506;11.692;2023-04-28T04:36:09;10.70;;;8.40;;
6725;SDS011;3400;48.506;11.692;2023-04-28T04:38:37;15.30;;;9.03;;
6725;SDS011;3400;48.506;11.692;2023-04-28T04:41:12;8.90;;;8.00;;
6725;SDS011;3400;48.506;11.692;2023-04-28T04:43:40;9.30;;;8.43;;
6725;SDS011;3400;48.506;11.692;2023-04-28T04:46:08;10.53;;;9.43;;
6725;SDS011;3400;48.506;11.692;2023-04-28T04:48:36;11.57;;;9.50;;
6725;SDS011;3400;48.506;11.692;2023-04-28T04:51:05;9.80;;;8.13;;
6725;SDS011;3400;48.506;11.692;2023-04-28T04:53:33;13.47;;;9.10;;
6725;SDS011;3400;48.506;11.692;2023-04-28T04:56:01;9.87;;;8.87;;
6725;SDS011;3400;48.506;11.692;2023-04-28T04:58:31;14.13;;;9.23;;
6725;SDS011;3400;48.506;11.692;2023-04-28T05:01:10;11.00;;;8.97;;
6725;SDS011;3400;48.506;11.692;2023-04-28T05:03:38;11.63;;;8.50;;
6725;SDS011;3400;48.506;11.692;2023-04-28T05:06:07;9.47;;;8.37;;
6725;SDS011;3400;48.506;11.692;2023-04-28T05:08:42;12.47;;;8.90;;
6725;SDS011;3400;48.506;11.692;2023-04-28T05:11:10;9.37;;;8.23;;
6725;SDS011;3400;48.506;11.692;2023-04-28T05:13:39;13.30;;;8.33;;
6725;SDS011;3400;48.506;11.692;2023-04-28T05:16:07;8.80;;;7.90;;
6725;SDS011;3400;48.506;11.692;2023-04-28T05:18:36;11.53;;;8.17;;
6725;SDS011;3400;48.506;11.692;2023-04-28T05:21:04;9.23;;;7.33;;
6725;SDS011;3400;48.506;11.692;2023-04-28T05:23:34;9.83;;;7.60;;
6725;SDS011;3400;48.506;11.692;2023-04-28T05:26:02;9.07;;;8.17;;
6725;SDS011;3400;48.506;11.692;2023-04-28T05:28:31;11.20;;;7.97;;
6725;SDS011;3400;48.506;11.692;2023-04-28T05:31:00;10.43;;;9.00;;
6725;SDS011;3400;48.506;11.692;2023-04-28T05:33:30;10.17;;;9.10;;
6725;SDS011;3400;48.506;11.692;2023-04-28T05:35:58;10.37;;;8.40;;
6725;SDS011;3400;48.506;11.692;2023-04-28T05:38:26;10.23;;;8.40;;
6725;SDS011;3400;48.506;11.692;2023-04-28T05:40:58;11.57;;;8.93;;
6725;SDS011;3400;48.506;11.692;2023-04-28T05:43:27;11.83;;;8.97;;
6725;SDS011;3400;48.506;11.692;2023-04-28T05:45:55;9.83;;;8.83;;
6725;SDS011;3400;48.506;11.692;2023-04-28T05:48:24;10.33;;;8.83;;
6725;SDS011;3400;48.506;11.692;2023-04-28T05:50:53;10.33;;;8.47;;
6725;SDS011;3400;48.506;11.692;2023-04-28T05:53:21;12.90;;;9.47;;
6725;SDS011;3400;48.506;11.692;2023-04-28T05:55:50;12.23;;;10.23;;
6725;SDS011;3400;48.506;11.692;2023-04-28T05:58:20;12.67;;;10.47;;
6725;SDS011;3400;48.506;11.692;2023-04-28T06:00:48;11.53;;;10.27;;
6725;SDS011;3400;48.506;11.692;2023-04-28T06:03:19;13.30;;;10.13;;
6725;SDS011;3400;48.506;11.692;2023-04-28T06:05:50;10.67;;;9.43;;
6725;SDS011;3400;48.506;11.692;2023-04-28T06:08:19;13.60;;;9.50;;
6725;SDS011;3400;48.506;11.692;2023-04-28T06:10:47;13.23;;;10.23;;
6725;SDS011;3400;48.506;11.692;2023-04-28T06:13:15;11.87;;;10.30;;
6725;SDS011;3400;48.506;11.692;2023-04-28T06:15:44;11.67;;;9.80;;
6725;SDS011;3400;48.506;11.692;2023-04-28T06:18:12;16.00;;;12.33;;
6725;SDS011;3400;48.506;11.692;2023-04-28T06:20:41;13.47;;;12.07;;
6725;SDS011;3400;48.506;11.692;2023-04-28T06:23:09;13.57;;;12.17;;
6725;SDS011;3400;48.506;11.692;2023-04-28T06:25:42;11.87;;;10.67;;
6725;SDS011;3400;48.506;11.692;2023-04-28T06:28:10;13.23;;;10.33;;
6725;SDS011;3400;48.506;11.692;2023-04-28T06:30:39;14.13;;;11.73;;
6725;SDS011;3400;48.506;11.692;2023-04-28T06:33:08;12.57;;;11.27;;
6725;SDS011;3400;48.506;11.692;2023-04-28T06:35:38;10.93;;;9.83;;
6725;SDS011;3400;48.506;11.692;2023-04-28T06:38:06;10.30;;;9.23;;
6725;SDS011;3400;48.506;11.692;2023-04-28T06:40:33;10.80;;;8.80;;
6725;SDS011;3400;48.506;11.692;2023-04-28T06:43:03;11.30;;;10.20;;
6725;SDS011;3400;48.506;11.692;2023-04-28T06:45:39;11.30;;;9.17;;
6725;SDS011;3400;48.506;11.692;2023-04-28T06:48:08;9.30;;;8.20;;
6725;SDS011;3400;48.506;11.692;2023-04-28T06:50:37;8.67;;;7.77;;
6725;SDS011;3400;48.506;11.692;2023-04-28T06:53:06;7.30;;;6.60;;
6725;SDS011;3400;48.506;11.692;2023-04-28T06:55:34;7.13;;;6.43;;
6725;SDS011;3400;48.506;11.692;2023-04-28T06:58:02;8.67;;;6.60;;
6725;SDS011;3400;48.506;11.692;2023-04-28T07:00:32;6.73;;;6.13;;
6725;SDS011;3400;48.506;11.692;2023-04-28T07:03:01;8.07;;;5.70;;
6725;SDS011;3400;48.506;11.692;2023-04-28T07:05:30;6.17;;;5.57;;
6725;SDS011;3400;48.506;11.692;2023-04-28T07:07:59;5.67;;;5.17;;
6725;SDS011;3400;48.506;11.692;2023-04-28T07:10:27;6.17;;;5.57;;
6725;SDS011;3400;48.506;11.692;2023-04-28T07:12:55;5.20;;;4.70;;
6725;SDS011;3400;48.506;11.692;2023-04-28T07:15:23;5.30;;;4.80;;
6725;SDS011;3400;48.506;11.692;2023-04-28T07:17:51;5.37;;;4.87;;
6725;SDS011;3400;48.506;11.692;2023-04-28T07:20:19;5.60;;;5.10;;
6725;SDS011;3400;48.506;11.692;2023-04-28T07:22:49;5.53;;;5.03;;
6725;SDS011;3400;48.506;11.692;2023-04-28T07:25:18;4.93;;;4.53;;
6725;SDS011;3400;48.506;11.692;2023-04-28T07:27:46;5.53;;;4.67;;
6725;SDS011;3400;48.506;11.692;2023-04-28T07:30:14;5.23;;;4.73;;
6725;SDS011;3400;48.506;11.692;2023-04-28T07:32:42;5.00;;;4.50;;
6725;SDS011;3400;48.506;11.692;2023-04-28T07:35:10;5.13;;;4.73;;
6725;SDS011;3400;48.506;11.692;2023-04-28T07:37:38;6.37;;;5.10;;
6725;SDS011;3400;48.506;11.692;2023-04-28T07:40:08;4.87;;;4.37;;
6725;SDS011;3400;48.506;11.692;2023-04-28T07:42:36;5.00;;;4.57;;
6725;SDS011;3400;48.506;11.692;2023-04-28T07:45:04;5.13;;;4.63;;
6725;SDS011;3400;48.506;11.692;2023-04-28T07:47:32;5.37;;;4.87;;
6725;SDS011;3400;48.506;11.692;2023-04-28T07:50:01;5.53;;;4.40;;
6725;SDS011;3400;48.506;11.692;2023-04-28T07:52:31;7.80;;;5.10;;
6725;SDS011;3400;48.506;11.692;2023-04-28T07:54:59;8.73;;;5.50;;
6725;SDS011;3400;48.506;11.692;2023-04-28T07:57:29;5.60;;;4.63;;
6725;SDS011;3400;48.506;11.692;2023-04-28T07:59:56;5.80;;;5.07;;
6725;SDS011;3400;48.506;11.692;2023-04-28T08:02:24;6.53;;;5.90;;
6725;SDS011;3400;48.506;11.692;2023-04-28T08:04:52;6.60;;;5.97;;
6725;SDS011;3400;48.506;11.692;2023-04-28T08:07:20;5.83;;;5.27;;
6725;SDS011;3400;48.506;11.692;2023-04-28T08:09:49;4.97;;;4.57;;
6725;SDS011;3400;48.506;11.692;2023-04-28T08:12:17;6.37;;;4.93;;
6725;SDS011;3400;48.506;11.692;2023-04-28T08:14:46;8.50;;;5.50;;
6725;SDS011;3400;48.506;11.692;2023-04-28T08:17:14;5.17;;;4.40;;
6725;SDS011;3400;48.506;11.692;2023-04-28T08:19:44;4.80;;;4.40;;
6725;SDS011;3400;48.506;11.692;2023-04-28T08:22:12;5.40;;;4.83;;
6725;SDS011;3400;48.506;11.692;2023-04-28T08:24:40;7.30;;;4.70;;
6725;SDS011;3400;48.506;11.692;2023-04-28T08:27:08;3.87;;;3.57;;
6725;SDS011;3400;48.506;11.692;2023-04-28T08:29:36;6.03;;;3.80;;
6725;SDS011;3400;48.506;11.692;2023-04-28T08:32:06;4.50;;;4.10;;
6725;SDS011;3400;48.506;11.692;2023-04-28T08:34:34;4.33;;;3.53;;
6725;SDS011;3400;48.506;11.692;2023-04-28T08:37:02;5.07;;;3.40;;
6725;SDS011;3400;48.506;11.692;2023-04-28T08:39:31;4.23;;;3.80;;
6725;SDS011;3400;48.506;11.692;2023-04-28T08:42:01;4.73;;;3.80;;
6725;SDS011;3400;48.506;11.692;2023-04-28T08:44:32;4.50;;;3.80;;
6725;SDS011;3400;48.506;11.692;2023-04-28T08:47:03;4.70;;;3.47;;
6725;SDS011;3400;48.506;11.692;2023-04-28T08:49:33;4.47;;;3.50;;
6725;SDS011;3400;48.506;11.692;2023-04-28T08:52:01;3.73;;;3.37;;
6725;SDS011;3400;48.506;11.692;2023-04-28T08:54:32;4.27;;;3.77;;
6725;SDS011;3400;48.506;11.692;2023-04-28T08:57:02;4.57;;;3.73;;
6725;SDS011;3400;48.506;11.692;2023-04-28T08:59:30;3.83;;;3.30;;
6725;SDS011;3400;48.506;11.692;2023-04-28T09:01:58;3.97;;;3.67;;
6725;SDS011;3400;48.506;11.692;2023-04-28T09:04:26;4.23;;;3.93;;
6725;SDS011;3400;48.506;11.692;2023-04-28T09:06:55;5.00;;;4.60;;
6725;SDS011;3400;48.506;11.692;2023-04-28T09:09:23;4.00;;;3.60;;
6725;SDS011;3400;48.506;11.692;2023-04-28T09:11:52;5.20;;;3.80;;
6725;SDS011;3400;48.506;11.692;2023-04-28T09:14:21;5.97;;;4.40;;
6725;SDS011;3400;48.506;11.692;2023-04-28T09:16:49;5.63;;;4.50;;
6725;SDS011;3400;48.506;11.692;2023-04-28T09:19:17;7.13;;;4.60;;
6725;SDS011;3400;48.506;11.692;2023-04-28T09:21:47;5.90;;;4.90;;
6725;SDS011;3400;48.506;11.692;2023-04-28T09:24:26;4.80;;;4.40;;
6725;SDS011;3400;48.506;11.692;2023-04-28T09:26:57;5.10;;;4.60;;
6725;SDS011;3400;48.506;11.692;2023-04-28T09:29:25;4.30;;;3.90;;
6725;SDS011;3400;48.506;11.692;2023-04-28T09:31:53;5.30;;;4.80;;
6725;SDS011;3400;48.506;11.692;2023-04-28T09:34:21;5.10;;;4.60;;
6725;SDS011;3400;48.506;11.692;2023-04-28T09:36:49;5.00;;;4.37;;
6725;SDS011;3400;48.506;11.692;2023-04-28T09:39:28;6.87;;;4.47;;
6725;SDS011;3400;48.506;11.692;2023-04-28T09:41:57;5.13;;;4.40;;
6725;SDS011;3400;48.506;11.692;2023-04-28T09:44:28;6.07;;;4.73;;
6725;SDS011;3400;48.506;11.692;2023-04-28T09:46:55;5.27;;;4.73;;
6725;SDS011;3400;48.506;11.692;2023-04-28T09:49:23;5.20;;;4.80;;
6725;SDS011;3400;48.506;11.692;2023-04-28T09:51:51;5.40;;;4.40;;
6725;SDS011;3400;48.506;11.692;2023-04-28T09:54:19;5.00;;;4.53;;
6725;SDS011;3400;48.506;11.692;2023-04-28T09:56:49;5.57;;;4.97;;
6725;SDS011;3400;48.506;11.692;2023-04-28T09:59:18;6.03;;;4.17;;
6725;SDS011;3400;48.506;11.692;2023-04-28T10:01:46;5.13;;;4.73;;
6725;SDS011;3400;48.506;11.692;2023-04-28T10:04:14;5.40;;;4.90;;
6725;SDS011;3400;48.506;11.692;2023-04-28T10:06:43;4.70;;;4.30;;
6725;SDS011;3400;48.506;11.692;2023-04-28T10:09:11;4.70;;;4.30;;
6725;SDS011;3400;48.506;11.692;2023-04-28T10:11:41;5.37;;;4.70;;
6725;SDS011;3400;48.506;11.692;2023-04-28T10:14:10;5.47;;;4.77;;
6725;SDS011;3400;48.506;11.692;2023-04-28T10:16:38;5.00;;;4.60;;
6725;SDS011;3400;48.506;11.692;2023-04-28T10:19:06;5.23;;;4.73;;
6725;SDS011;3400;48.506;11.692;2023-04-28T10:21:36;4.57;;;4.17;;
6725;SDS011;3400;48.506;11.692;2023-04-28T10:24:08;5.87;;;4.90;;
6725;SDS011;3400;48.506;11.692;2023-04-28T10:29:36;4.27;;;3.80;;
6725;SDS011;3400;48.506;11.692;2023-04-28T10:32:13;3.90;;;3.60;;
6725;SDS011;3400;48.506;11.692;2023-04-28T10:34:41;6.37;;;3.50;;
6725;SDS011;3400;48.506;11.692;2023-04-28T10:37:09;4.17;;;3.77;;
6725;SDS011;3400;48.506;11.692;2023-04-28T10:39:39;4.67;;;3.70;;
6725;SDS011;3400;48.506;11.692;2023-04-28T10:44:51;3.53;;;3.23;;
6725;SDS011;3400;48.506;11.692;2023-04-28T10:47:19;5.07;;;3.13;;
6725;SDS011;3400;48.506;11.692;2023-04-28T10:50:06;4.87;;;2.83;;
6725;SDS011;3400;48.506;11.692;2023-04-28T10:52:49;2.93;;;2.73;;
6725;SDS011;3400;48.506;11.692;2023-04-28T10:55:30;4.90;;;3.17;;
6725;SDS011;3400;48.506;11.692;2023-04-28T11:00:49;3.40;;;3.03;;
6725;SDS011;3400;48.506;11.692;2023-04-28T11:03:37;3.40;;;2.80;;
6725;SDS011;3400;48.506;11.692;2023-04-28T11:06:18;3.00;;;2.77;;
6725;SDS011;3400;48.506;11.692;2023-04-28T11:08:47;4.13;;;2.73;;
6725;SDS011;3400;48.506;11.692;2023-04-28T11:11:19;2.93;;;2.73;;
6725;SDS011;3400;48.506;11.692;2023-04-28T11:13:47;3.43;;;3.10;;
6725;SDS011;3400;48.506;11.692;2023-04-28T11:16:17;3.17;;;2.87;;
6725;SDS011;3400;48.506;11.692;2023-04-28T11:18:52;3.10;;;2.90;;
6725;SDS011;3400;48.506;11.692;2023-04-28T11:21:21;3.40;;;3.10;;
6725;SDS011;3400;48.506;11.692;2023-04-28T11:23:49;2.73;;;2.50;;
6725;SDS011;3400;48.506;11.692;2023-04-28T11:26:18;2.73;;;2.20;;
6725;SDS011;3400;48.506;11.692;2023-04-28T11:28:46;2.87;;;2.43;;
6725;SDS011;3400;48.506;11.692;2023-04-28T11:31:15;3.97;;;2.40;;
6725;SDS011;3400;48.506;11.692;2023-04-28T11:33:47;3.47;;;3.10;;
6725;SDS011;3400;48.506;11.692;2023-04-28T11:39:05;2.97;;;2.77;;
6725;SDS011;3400;48.506;11.692;2023-04-28T11:41:33;3.07;;;2.60;;
6725;SDS011;3400;48.506;11.692;2023-04-28T11:44:08;2.50;;;2.30;;
6725;SDS011;3400;48.506;11.692;2023-04-28T11:46:43;3.87;;;2.47;;
6725;SDS011;3400;48.506;11.692;2023-04-28T11:49:12;2.33;;;2.13;;
6725;SDS011;3400;48.506;11.692;2023-04-28T11:51:40;2.97;;;2.60;;
6725;SDS011;3400;48.506;11.692;2023-04-28T11:54:10;2.93;;;2.73;;
6725;SDS011;3400;48.506;11.692;2023-04-28T11:56:40;3.47;;;2.37;;
6725;SDS011;3400;48.506;11.692;2023-04-28T11:59:10;3.53;;;2.50;;
6725;SDS011;3400;48.506;11.692;2023-04-28T12:01:44;3.07;;;2.50;;
6725;SDS011;3400;48.506;11.692;2023-04-28T12:04:14;2.60;;;2.27;;
6725;SDS011;3400;48.506;11.692;2023-04-28T12:06:59;2.77;;;2.57;;
6725;SDS011;3400;48.506;11.692;2023-04-28T12:09:27;2.70;;;2.50;;
6725;SDS011;3400;48.506;11.692;2023-04-28T12:11:56;2.67;;;2.47;;
6725;SDS011;3400;48.506;11.692;2023-04-28T12:14:26;3.40;;;2.07;;
6725;SDS011;3400;48.506;11.692;2023-04-28T12:17:03;2.50;;;2.17;;
6725;SDS011;3400;48.506;11.692;2023-04-28T12:19:43;1.90;;;1.80;;
6725;SDS011;3400;48.506;11.692;2023-04-28T12:22:11;2.07;;;1.97;;
6725;SDS011;3400;48.506;11.692;2023-04-28T12:24:43;1.93;;;1.83;;
6725;SDS011;3400;48.506;11.692;2023-04-28T12:27:17;3.13;;;2.10;;
6725;SDS011;3400;48.506;11.692;2023-04-28T12:29:46;1.63;;;1.53;;
6725;SDS011;3400;48.506;11.692;2023-04-28T12:32:14;1.70;;;1.60;;
6725;SDS011;3400;48.506;11.692;2023-04-28T12:34:44;1.80;;;1.70;;
6725;SDS011;3400;48.506;11.692;2023-04-28T12:37:12;2.83;;;1.50;;
6725;SDS011;3400;48.506;11.692;2023-04-28T12:39:41;1.40;;;1.30;;
6725;SDS011;3400;48.506;11.692;2023-04-28T12:42:14;1.17;;;1.10;;
6725;SDS011;3400;48.506;11.692;2023-04-28T12:44:47;1.87;;;1.20;;
6725;SDS011;3400;48.506;11.692;2023-04-28T12:47:21;1.73;;;1.10;;
6725;SDS011;3400;48.506;11.692;2023-04-28T12:49:51;1.13;;;1.13;;
6725;SDS011;3400;48.506;11.692;2023-04-28T12:52:19;2.17;;;1.30;;
6725;SDS011;3400;48.506;11.692;2023-04-28T12:54:55;1.97;;;0.97;;
6725;SDS011;3400;48.506;11.692;2023-04-28T12:57:27;1.00;;;0.90;;
6725;SDS011;3400;48.506;11.692;2023-04-28T12:59:56;1.47;;;0.97;;
6725;SDS011;3400;48.506;11.692;2023-04-28T13:02:24;1.57;;;0.97;;
6725;SDS011;3400;48.506;11.692;2023-04-28T13:04:54;0.90;;;0.90;;
6725;SDS011;3400;48.506;11.692;2023-04-28T13:07:22;0.80;;;0.80;;
6725;SDS011;3400;48.506;11.692;2023-04-28T13:09:49;0.90;;;0.90;;
6725;SDS011;3400;48.506;11.692;2023-04-28T13:12:17;0.87;;;0.80;;
6725;SDS011;3400;48.506;11.692;2023-04-28T13:14:47;1.03;;;1.03;;
6725;SDS011;3400;48.506;11.692;2023-04-28T13:17:16;1.70;;;1.30;;
6725;SDS011;3400;48.506;11.692;2023-04-28T13:19:44;1.00;;;0.97;;
6725;SDS011;3400;48.506;11.692;2023-04-28T13:22:17;1.17;;;0.97;;
6725;SDS011;3400;48.506;11.692;2023-04-28T13:24:46;1.10;;;1.10;;
6725;SDS011;3400;48.506;11.692;2023-04-28T13:27:14;1.27;;;1.20;;
6725;SDS011;3400;48.506;11.692;2023-04-28T13:29:42;1.87;;;1.10;;
6725;SDS011;3400;48.506;11.692;2023-04-28T13:32:10;2.83;;;1.20;;
6725;SDS011;3400;48.506;11.692;2023-04-28T13:34:38;1.50;;;1.40;;
6725;SDS011;3400;48.506;11.692;2023-04-28T13:37:05;4.53;;;1.37;;
6725;SDS011;3400;48.506;11.692;2023-04-28T13:39:35;1.33;;;1.23;;
6725;SDS011;3400;48.506;11.692;2023-04-28T13:42:03;1.20;;;1.20;;
6725;SDS011;3400;48.506;11.692;2023-04-28T13:44:32;1.40;;;1.30;;
6725;SDS011;3400;48.506;11.692;2023-04-28T13:47:00;2.97;;;1.43;;
6725;SDS011;3400;48.506;11.692;2023-04-28T13:49:33;1.83;;;1.30;;
6725;SDS011;3400;48.506;11.692;2023-04-28T13:52:02;1.10;;;1.10;;
6725;SDS011;3400;48.506;11.692;2023-04-28T13:54:29;1.57;;;1.47;;
6725;SDS011;3400;48.506;11.692;2023-04-28T13:56:59;1.10;;;1.10;;
6725;SDS011;3400;48.506;11.692;2023-04-28T13:59:27;5.13;;;1.20;;
6725;SDS011;3400;48.506;11.692;2023-04-28T14:01:55;1.90;;;1.40;;
6725;SDS011;3400;48.506;11.692;2023-04-28T14:04:23;1.63;;;1.53;;
6725;SDS011;3400;48.506;11.692;2023-04-28T14:06:51;1.97;;;1.50;;
6725;SDS011;3400;48.506;11.692;2023-04-28T14:09:19;1.60;;;1.50;;
6725;SDS011;3400;48.506;11.692;2023-04-28T14:11:47;1.50;;;1.50;;
6725;SDS011;3400;48.506;11.692;2023-04-28T14:14:16;2.13;;;1.33;;
6725;SDS011;3400;48.506;11.692;2023-04-28T14:16:44;1.60;;;1.50;;
6725;SDS011;3400;48.506;11.692;2023-04-28T14:19:12;2.23;;;2.03;;
6725;SDS011;3400;48.506;11.692;2023-04-28T14:21:42;1.27;;;1.23;;
6725;SDS011;3400;48.506;11.692;2023-04-28T14:24:09;2.00;;;1.80;;
6725;SDS011;3400;48.506;11.692;2023-04-28T14:26:37;1.60;;;1.50;;
6725;SDS011;3400;48.506;11.692;2023-04-28T14:29:05;2.20;;;2.00;;
6725;SDS011;3400;48.506;11.692;2023-04-28T14:31:34;2.60;;;2.10;;
6725;SDS011;3400;48.506;11.692;2023-04-28T14:34:02;1.97;;;1.87;;
6725;SDS011;3400;48.506;11.692;2023-04-28T14:36:30;2.60;;;2.40;;
6725;SDS011;3400;48.506;11.692;2023-04-28T14:38:59;5.70;;;2.77;;
6725;SDS011;3400;48.506;11.692;2023-04-28T14:41:28;6.83;;;5.30;;
6725;SDS011;3400;48.506;11.692;2023-04-28T14:43:56;11.37;;;7.80;;
6725;SDS011;3400;48.506;11.692;2023-04-28T14:46:24;18.47;;;12.47;;
6725;SDS011;3400;48.506;11.692;2023-04-28T14:48:53;19.70;;;12.07;;
6725;SDS011;3400;48.506;11.692;2023-04-28T14:51:21;12.50;;;8.90;;
6725;SDS011;3400;48.506;11.692;2023-04-28T14:53:50;16.97;;;9.93;;
6725;SDS011;3400;48.506;11.692;2023-04-28T14:56:19;12.10;;;8.20;;
6725;SDS011;3400;48.506;11.692;2023-04-28T14:58:47;10.43;;;7.60;;
6725;SDS011;3400;48.506;11.692;2023-04-28T15:01:15;4.27;;;3.20;;
6725;SDS011;3400;48.506;11.692;2023-04-28T15:03:44;2.90;;;2.70;;
6725;SDS011;3400;48.506;11.692;2023-04-28T15:06:13;3.07;;;2.70;;
6725;SDS011;3400;48.506;11.692;2023-04-28T15:08:41;2.50;;;2.33;;
6725;SDS011;3400;48.506;11.692;2023-04-28T15:11:09;3.73;;;2.47;;
6725;SDS011;3400;48.506;11.692;2023-04-28T15:13:37;2.33;;;2.23;;
6725;SDS011;3400;48.506;11.692;2023-04-28T15:16:05;4.20;;;1.80;;
6725;SDS011;3400;48.506;11.692;2023-04-28T15:18:33;2.50;;;2.10;;
6725;SDS011;3400;48.506;11.692;2023-04-28T15:21:01;4.47;;;2.30;;